Terminal Aerodrome Forecast
Issued by NWS Billings, MT

Home | Current Version | Previous Version | Text Only | Print | Product List | Glossary Off
Versions: 1 2 3 4 5 6 7 8 9 10 11 12 13 14 15 16 17 18 19 20 21 22 23 24 25 26 27 28

000
FTUS45 KBYZ 241138
TAFMLS
TAF
KMLS 241138Z 2412/2512 32015KT P6SM -SHRA BKN025 OVC035
     FM241300 32016KT P6SM BKN025
     FM241500 32019G28KT P6SM FEW040 SCT200
     FM250100 35015KT P6SM FEW040
     FM250600 34010KT P6SM BKN020=

USA.gov is the U.S. government's official web portal to all federal, state and local government web resources and services.